Time;durP1;ratioP1;P1;durP2;ratioP2;P2;SDS_P1;SDS_P2;PMS_P1;PMS_P2;Temp;Humidity;BMP_temperature;BMP_pressure;BME280_temperature;BME280_humidity;BME280_pressure;Samples;Min_cycle;Max_cycle;Signal;HPM_P1;HPM_P2
2021/01/03 00:01:01;;;;;;;3.40;3.10;;;3.10;68.80;;;;;;5105608;28;20193;-91
2021/01/03 00:03:27;;;;;;;3.00;2.80;;;3.00;69.00;;;;;;5105260;28;20253;-91
2021/01/03 00:05:53;;;;;;;2.77;2.57;;;3.10;68.10;;;;;;5106152;28;20242;-91
2021/01/03 00:08:19;;;;;;;3.63;3.03;;;3.10;68.90;;;;;;5123869;28;20187;-91
2021/01/03 00:10:45;;;;;;;3.00;2.80;;;3.10;68.30;;;;;;5113910;28;20604;-91
2021/01/03 00:13:14;;;;;;;3.10;2.80;;;3.00;67.80;;;;;;5118904;28;20182;-90
2021/01/03 00:15:40;;;;;;;4.73;3.00;;;3.00;68.20;;;;;;5104475;28;20576;-90
2021/01/03 00:18:05;;;;;;;3.10;2.80;;;3.00;68.40;;;;;;5089612;28;20239;-90
2021/01/03 00:20:31;;;;;;;3.73;3.23;;;3.00;69.30;;;;;;5109317;28;20921;-91
2021/01/03 00:22:57;;;;;;;3.17;2.87;;;3.00;68.80;;;;;;5109191;28;20185;-90
2021/01/03 00:25:27;;;;;;;3.77;3.40;;;3.00;68.70;;;;;;5126905;28;20202;-90
2021/01/03 00:27:53;;;;;;;3.60;2.93;;;3.00;67.70;;;;;;5108937;28;20171;-91
2021/01/03 00:30:22;;;;;;;3.40;3.10;;;3.00;68.00;;;;;;5126578;28;20248;-89
2021/01/03 00:32:48;;;;;;;3.33;3.03;;;3.00;69.90;;;;;;5127519;28;20837;-90
2021/01/03 00:35:18;;;;;;;8.07;6.50;;;3.00;68.00;;;;;;5126695;28;20174;-90
2021/01/03 00:37:44;;;;;;;101.00;51.10;;;3.00;68.70;;;;;;5127730;28;20178;-90
2021/01/03 00:40:13;;;;;;;30.83;15.43;;;3.10;69.40;;;;;;5127660;28;20205;-90
2021/01/03 00:42:39;;;;;;;46.53;33.47;;;3.10;68.00;;;;;;5108777;28;20206;-90
2021/01/03 00:45:07;;;;;;;25.03;18.47;;;3.10;68.20;;;;;;5109782;28;20210;-90
2021/01/03 00:47:33;;;;;;;5.80;5.30;;;3.10;67.80;;;;;;5127578;28;20171;-90
2021/01/03 00:49:59;;;;;;;7.07;6.37;;;3.00;68.00;;;;;;5127604;28;20205;-89
2021/01/03 00:52:24;;;;;;;8.37;7.37;;;3.00;68.60;;;;;;5109980;28;20174;-90
2021/01/03 00:54:50;;;;;;;4.87;4.37;;;3.00;69.70;;;;;;5133043;28;20198;-90
2021/01/03 00:57:16;;;;;;;5.37;4.90;;;3.10;68.70;;;;;;5139763;28;20178;-89
2021/01/03 00:59:41;;;;;;;4.93;4.43;;;3.10;68.90;;;;;;5119457;28;20214;-90
2021/01/03 01:02:07;;;;;;;3.40;3.10;;;3.10;68.20;;;;;;5129818;28;20182;-90
2021/01/03 01:04:33;;;;;;;3.27;3.00;;;3.10;68.50;;;;;;5129620;28;20202;-90
2021/01/03 01:06:58;;;;;;;4.00;3.70;;;3.10;68.50;;;;;;5094733;28;20179;-90
2021/01/03 01:09:24;;;;;;;4.17;3.77;;;3.10;68.40;;;;;;5127100;28;20702;-90
2021/01/03 01:11:53;;;;;;;5.63;4.10;;;3.10;67.30;;;;;;5128038;28;20192;-90
2021/01/03 01:14:19;;;;;;;3.93;3.63;;;3.10;68.00;;;;;;5109812;28;20179;-90
2021/01/03 01:16:45;;;;;;;4.10;3.30;;;3.10;67.90;;;;;;5127323;28;20227;-90
2021/01/03 01:19:11;;;;;;;4.03;3.63;;;3.00;68.10;;;;;;5109003;28;20194;-90
2021/01/03 01:21:36;;;;;;;4.30;3.93;;;3.00;67.90;;;;;;5127258;28;20182;-90
2021/01/03 01:24:02;;;;;;;4.07;3.67;;;3.00;69.00;;;;;;5126914;28;20190;-90
2021/01/03 01:26:28;;;;;;;4.17;3.77;;;2.90;68.30;;;;;;5108823;28;20210;-90
2021/01/03 01:28:53;;;;;;;5.10;4.60;;;3.00;68.30;;;;;;5108853;28;20213;-90
2021/01/03 01:31:19;;;;;;;4.00;3.60;;;3.10;68.40;;;;;;5119777;28;20179;-90
2021/01/03 01:33:45;;;;;;;3.73;3.37;;;3.10;69.00;;;;;;5088229;28;20190;-90
2021/01/03 01:36:11;;;;;;;4.60;4.20;;;3.10;69.20;;;;;;5087694;28;20538;-91
2021/01/03 01:38:37;;;;;;;4.37;3.50;;;3.10;69.40;;;;;;5087596;28;20678;-90
2021/01/03 01:41:03;;;;;;;5.03;4.53;;;3.10;67.40;;;;;;5092017;28;20191;-90
2021/01/03 01:43:29;;;;;;;4.37;3.97;;;3.20;68.90;;;;;;5087889;28;20205;-90
2021/01/03 01:45:55;;;;;;;3.60;3.30;;;3.20;68.00;;;;;;5070520;28;20211;-89
2021/01/03 01:48:30;;;;;;;3.60;3.20;;;3.20;67.60;;;;;;5087044;28;20179;-90
2021/01/03 01:51:22;;;;;;;4.57;3.97;;;3.30;68.00;;;;;;5104763;28;20691;-89
2021/01/03 01:54:03;;;;;;;3.93;3.63;;;3.20;68.40;;;;;;5096910;28;20183;-89
2021/01/03 01:57:03;;;;;;;4.53;3.70;;;3.30;68.10;;;;;;5107693;28;20582;-89
2021/01/03 01:59:41;;;;;;;4.37;3.97;;;3.20;67.90;;;;;;5107255;28;20209;-90
2021/01/03 02:02:13;;;;;;;3.60;3.30;;;3.20;68.40;;;;;;5125606;28;20205;-90
2021/01/03 02:04:53;;;;;;;3.17;2.90;;;3.10;70.20;;;;;;5101976;28;20213;-90
2021/01/03 02:07:29;;;;;;;3.43;3.13;;;3.10;69.00;;;;;;5086791;28;20178;-89
2021/01/03 02:10:06;;;;;;;3.37;3.07;;;3.20;69.20;;;;;;5086380;28;20199;-91
2021/01/03 02:12:39;;;;;;;4.20;3.53;;;3.20;70.70;;;;;;5104439;28;20183;-89
2021/01/03 02:15:11;;;;;;;3.47;3.17;;;3.20;70.60;;;;;;5104295;28;20182;-90
2021/01/03 02:17:37;;;;;;;3.80;3.43;;;3.20;70.10;;;;;;5104375;28;20187;-89
2021/01/03 02:20:04;;;;;;;4.73;3.87;;;3.20;69.90;;;;;;5104375;28;20713;-90
2021/01/03 02:22:38;;;;;;;3.97;3.67;;;3.30;69.80;;;;;;5086109;28;20191;-90
2021/01/03 02:25:09;;;;;;;4.27;3.87;;;3.30;68.90;;;;;;5104418;28;20855;-89
2021/01/03 02:27:56;;;;;;;5.20;4.40;;;3.30;69.70;;;;;;5104231;28;20213;-90
2021/01/03 02:30:24;;;;;;;4.43;4.03;;;3.30;70.40;;;;;;5085699;28;20242;-89
2021/01/03 02:33:17;;;;;;;4.90;4.40;;;3.30;70.60;;;;;;5104351;28;20182;-89
2021/01/03 02:35:44;;;;;;;5.07;4.57;;;3.30;70.50;;;;;;5104226;28;20187;-89
2021/01/03 02:38:12;;;;;;;4.97;4.47;;;3.20;70.50;;;;;;5085704;28;20190;-90
2021/01/03 02:40:38;;;;;;;5.43;4.93;;;3.10;71.10;;;;;;5122800;28;20208;-90
2021/01/03 02:43:04;;;;;;;5.17;4.67;;;3.20;70.40;;;;;;5105983;28;20664;-90
2021/01/03 02:45:31;;;;;;;5.60;5.03;;;3.10;71.00;;;;;;5106366;28;20198;-90
2021/01/03 02:48:10;;;;;;;5.57;4.97;;;3.10;71.30;;;;;;5106263;28;20175;-90
2021/01/03 02:50:36;;;;;;;5.00;4.50;;;3.10;73.00;;;;;;5124318;28;20166;-89
2021/01/03 02:53:01;;;;;;;6.80;5.03;;;3.10;73.10;;;;;;5105739;28;20194;-90
2021/01/03 02:55:27;;;;;;;5.30;4.67;;;3.20;72.20;;;;;;5089273;28;20238;-89
2021/01/03 02:57:53;;;;;;;5.33;4.83;;;3.20;71.20;;;;;;5123762;28;20186;-89
2021/01/03 03:00:28;;;;;;;5.37;4.90;;;3.10;71.20;;;;;;5105855;28;20205;-90
2021/01/03 03:02:54;;;;;;;5.60;5.20;;;3.10;72.20;;;;;;5089849;28;20632;-91
2021/01/03 03:05:20;;;;;;;5.70;5.20;;;3.10;72.30;;;;;;5118704;28;20210;-90
2021/01/03 03:07:46;;;;;;;5.60;5.03;;;3.10;73.10;;;;;;5085847;28;20194;-91
2021/01/03 03:10:12;;;;;;;5.63;5.03;;;3.10;73.30;;;;;;5086584;28;20229;-90
2021/01/03 03:12:38;;;;;;;7.40;6.13;;;3.20;73.10;;;;;;5087464;28;20179;-90
2021/01/03 03:15:09;;;;;;;6.13;5.53;;;3.30;70.90;;;;;;5103562;28;20186;-90
2021/01/03 03:17:35;;;;;;;5.60;5.10;;;3.20;71.80;;;;;;5103275;28;20179;-90
2021/01/03 03:20:01;;;;;;;6.20;5.60;;;3.20;73.00;;;;;;5103527;28;20195;-89
2021/01/03 03:22:26;;;;;;;5.80;5.13;;;3.30;72.10;;;;;;5103145;28;20191;-90
2021/01/03 03:24:52;;;;;;;6.17;5.20;;;3.30;72.60;;;;;;5084768;28;20206;-90
2021/01/03 03:27:18;;;;;;;5.87;5.30;;;3.30;72.70;;;;;;5102589;28;20214;-90
2021/01/03 03:29:43;;;;;;;5.90;5.40;;;3.30;72.00;;;;;;5101928;28;20272;-90
2021/01/03 03:32:09;;;;;;;5.70;5.20;;;3.30;72.10;;;;;;5103444;28;20231;-90
2021/01/03 03:34:35;;;;;;;5.77;5.20;;;3.30;73.80;;;;;;5085233;28;20206;-90
2021/01/03 03:37:01;;;;;;;6.00;5.40;;;3.40;73.60;;;;;;5095680;28;20601;-90
2021/01/03 03:39:27;;;;;;;5.63;5.10;;;3.40;74.70;;;;;;5124635;28;20198;-91
2021/01/03 03:41:58;;;;;;;5.63;5.13;;;3.60;74.30;;;;;;5106654;28;20193;-90
2021/01/03 03:44:24;;;;;;;6.17;5.57;;;3.60;72.90;;;;;;5123732;28;20178;-91
2021/01/03 03:46:54;;;;;;;5.83;5.23;;;3.50;73.70;;;;;;5106376;28;20178;-90
2021/01/03 03:49:21;;;;;;;6.63;5.53;;;3.50;73.50;;;;;;5105487;28;20194;-90
2021/01/03 03:51:50;;;;;;;6.83;6.20;;;3.40;75.10;;;;;;5105285;28;20179;-90
2021/01/03 03:54:15;;;;;;;7.40;6.63;;;3.50;74.80;;;;;;5078213;28;20240;-90
2021/01/03 03:56:41;;;;;;;8.80;7.47;;;3.40;74.70;;;;;;5088755;28;20186;-90
2021/01/03 03:59:07;;;;;;;7.10;6.40;;;3.40;74.50;;;;;;5071870;28;20331;-90
2021/01/03 04:01:37;;;;;;;7.73;6.60;;;3.50;75.10;;;;;;5089705;28;20599;-90
2021/01/03 04:04:03;;;;;;;8.87;7.70;;;3.50;75.50;;;;;;5106823;28;20175;-90
2021/01/03 04:06:29;;;;;;;9.70;8.23;;;3.50;75.00;;;;;;5088553;28;20245;-89
2021/01/03 04:08:54;;;;;;;9.73;8.73;;;3.40;74.80;;;;;;5088360;28;20252;-90
2021/01/03 04:11:20;;;;;;;9.30;8.40;;;3.30;76.00;;;;;;5088749;28;20249;-90
2021/01/03 04:13:46;;;;;;;10.37;8.83;;;3.30;77.20;;;;;;5107484;28;20178;-90
2021/01/03 04:16:12;;;;;;;11.13;9.17;;;3.30;76.70;;;;;;5072623;28;20277;-89
2021/01/03 04:18:37;;;;;;;9.93;8.90;;;3.20;75.80;;;;;;5088760;28;20211;-90
2021/01/03 04:21:04;;;;;;;9.70;8.47;;;3.20;76.80;;;;;;5106983;28;20612;-90
2021/01/03 04:23:29;;;;;;;9.83;8.83;;;3.10;77.10;;;;;;5088753;28;20196;-89
2021/01/03 04:25:55;;;;;;;11.87;9.20;;;3.10;77.80;;;;;;5107075;28;20224;-90
2021/01/03 04:28:21;;;;;;;11.40;9.37;;;3.20;77.40;;;;;;5106815;28;20179;-89
2021/01/03 04:30:46;;;;;;;10.40;9.33;;;3.10;77.00;;;;;;5107426;28;20194;-90
2021/01/03 04:33:12;;;;;;;10.23;8.80;;;3.10;77.90;;;;;;5106428;28;20186;-89
2021/01/03 04:35:38;;;;;;;9.67;8.53;;;3.10;79.50;;;;;;5071885;28;20206;-90
2021/01/03 04:38:03;;;;;;;11.67;9.47;;;3.10;79.10;;;;;;5071473;28;20217;-90
2021/01/03 04:40:31;;;;;;;11.07;9.87;;;3.10;78.80;;;;;;5088157;28;20203;-90
2021/01/03 04:42:59;;;;;;;11.63;9.93;;;3.10;78.80;;;;;;5071488;28;20217;-89
2021/01/03 04:45:36;;;;;;;11.37;9.77;;;3.10;78.50;;;;;;5071461;28;20260;-89
2021/01/03 04:48:14;;;;;;;10.47;9.30;;;3.00;79.20;;;;;;5088150;28;20167;-90
2021/01/03 04:51:04;;;;;;;11.53;9.67;;;3.00;79.90;;;;;;5105876;28;20156;-90
2021/01/03 04:54:01;;;;;;;11.80;9.67;;;3.00;80.00;;;;;;5088254;28;20198;-89
2021/01/03 04:56:40;;;;;;;11.03;9.40;;;2.90;80.30;;;;;;5087891;28;20499;-90
2021/01/03 04:59:08;;;;;;;10.30;9.20;;;2.90;81.30;;;;;;5106101;28;20198;-90
2021/01/03 05:02:04;;;;;;;12.20;9.63;;;3.00;81.50;;;;;;5087719;28;20186;-90
2021/01/03 05:04:39;;;;;;;11.53;9.67;;;3.00;80.30;;;;;;5105155;28;20236;-90
2021/01/03 05:07:17;;;;;;;10.40;8.53;;;2.90;80.00;;;;;;5105637;28;20179;-90
2021/01/03 05:09:45;;;;;;;10.60;9.43;;;2.90;82.00;;;;;;5105668;28;20205;-90
2021/01/03 05:12:16;;;;;;;11.30;9.60;;;2.90;82.30;;;;;;5087485;28;20179;-90
2021/01/03 05:14:53;;;;;;;11.13;8.67;;;2.80;81.90;;;;;;5106124;28;20198;-89
2021/01/03 05:17:20;;;;;;;10.60;9.10;;;2.90;82.50;;;;;;5097828;28;20174;-89
2021/01/03 05:19:46;;;;;;;10.80;8.97;;;3.00;83.20;;;;;;5108016;28;20222;-90
2021/01/03 05:22:32;;;;;;;11.73;10.53;;;3.00;83.40;;;;;;5125762;28;20185;-90
2021/01/03 05:25:00;;;;;;;10.30;9.20;;;3.00;83.10;;;;;;5125948;28;20194;-91
2021/01/03 05:27:28;;;;;;;10.57;9.03;;;3.00;82.80;;;;;;5090530;28;20190;-91
2021/01/03 05:30:09;;;;;;;9.77;8.77;;;3.00;82.90;;;;;;5125727;28;20553;-90
2021/01/03 05:32:36;;;;;;;11.90;9.90;;;2.90;83.70;;;;;;5126269;28;20196;-90
2021/01/03 05:35:14;;;;;;;11.13;10.03;;;3.00;83.80;;;;;;5094568;28;20193;-90
2021/01/03 05:37:41;;;;;;;11.57;10.37;;;2.90;83.90;;;;;;5104912;28;20171;-90
2021/01/03 05:40:27;;;;;;;10.80;9.70;;;2.80;84.60;;;;;;5105197;28;20213;-91
2021/01/03 05:43:11;;;;;;;11.73;10.53;;;2.80;85.30;;;;;;5125004;28;20198;-90
2021/01/03 05:45:43;;;;;;;11.83;10.30;;;3.00;85.10;;;;;;5125441;28;20187;-90
2021/01/03 05:48:22;;;;;;;11.43;10.20;;;2.90;84.80;;;;;;5124652;28;20158;-90
2021/01/03 05:50:48;;;;;;;14.33;10.97;;;2.80;85.00;;;;;;5106353;28;20183;-91
2021/01/03 05:53:20;;;;;;;12.67;10.87;;;2.90;85.60;;;;;;5124644;28;20209;-91
2021/01/03 05:55:57;;;;;;;11.60;10.40;;;2.90;85.40;;;;;;5106687;28;20198;-90
2021/01/03 05:58:42;;;;;;;13.07;10.80;;;2.80;85.60;;;;;;5105762;28;20182;-90
2021/01/03 06:01:20;;;;;;;10.47;9.13;;;2.80;86.20;;;;;;5125402;28;20238;-90
2021/01/03 06:04:06;;;;;;;13.77;10.20;;;2.70;86.80;;;;;;5126040;28;20216;-90
2021/01/03 06:06:50;;;;;;;11.20;10.10;;;2.80;87.00;;;;;;5125843;28;20293;-91
2021/01/03 06:09:19;;;;;;;11.20;10.10;;;2.80;86.90;;;;;;5107536;28;20194;-90
2021/01/03 06:12:15;;;;;;;13.50;10.70;;;2.80;86.70;;;;;;5125677;28;20178;-91
2021/01/03 06:14:41;;;;;;;11.23;9.97;;;2.80;86.70;;;;;;5107400;28;20182;-91
2021/01/03 06:17:17;;;;;;;12.80;10.50;;;2.80;86.30;;;;;;5105984;28;20360;-91
2021/01/03 06:19:48;;;;;;;11.70;10.50;;;2.70;87.40;;;;;;5108389;28;20201;-91
2021/01/03 06:22:38;;;;;;;11.50;10.23;;;2.80;87.00;;;;;;5125456;28;20578;-90
2021/01/03 06:25:18;;;;;;;12.20;10.90;;;2.80;86.90;;;;;;5106721;28;20218;-91
2021/01/03 06:27:47;;;;;;;11.90;10.63;;;2.90;86.80;;;;;;5107605;28;20181;-91
2021/01/03 06:30:17;;;;;;;12.13;10.30;;;2.90;86.50;;;;;;5125115;28;20206;-91
2021/01/03 06:32:52;;;;;;;12.07;10.77;;;2.90;86.30;;;;;;5125345;28;20178;-91
2021/01/03 06:35:20;;;;;;;11.90;10.60;;;2.90;86.50;;;;;;5126074;28;20181;-91
2021/01/03 06:38:15;;;;;;;11.73;10.53;;;2.90;86.90;;;;;;5125124;28;20207;-91
2021/01/03 06:41:42;;;;;;;12.73;10.37;;;2.90;86.60;;;;;;5071129;28;20197;-91
2021/01/03 06:45:03;;;;;;;11.40;9.97;;;2.90;86.30;;;;;;5017189;28;20201;-91
2021/01/03 06:47:41;;;;;;;11.43;10.33;;;3.00;86.30;;;;;;4986112;28;20192;-92
2021/01/03 06:50:15;;;;;;;12.73;11.10;;;3.00;86.30;;;;;;5042246;28;20284;-91
2021/01/03 06:52:56;;;;;;;11.63;10.47;;;3.00;86.30;;;;;;5069503;28;20629;-91
2021/01/03 06:55:32;;;;;;;11.97;10.63;;;2.90;86.50;;;;;;5104607;28;20162;-91
2021/01/03 06:58:34;;;;;;;12.17;10.83;;;2.90;87.40;;;;;;5104468;28;20167;-91
2021/01/03 07:01:18;;;;;;;10.83;9.73;;;2.80;86.80;;;;;;5106535;28;20166;-91
2021/01/03 07:03:49;;;;;;;12.77;10.70;;;2.70;87.90;;;;;;5106982;28;20216;-92
2021/01/03 07:06:15;;;;;;;11.37;10.17;;;2.70;87.60;;;;;;5087194;28;20270;-90
2021/01/03 07:08:51;;;;;;;13.37;11.23;;;2.70;87.60;;;;;;5088990;28;20199;-90
2021/01/03 07:11:37;;;;;;;11.77;10.57;;;2.70;87.10;;;;;;5106459;28;20170;-90
2021/01/03 07:14:23;;;;;;;13.47;10.57;;;2.80;87.90;;;;;;5106701;28;20175;-90
2021/01/03 07:16:58;;;;;;;11.93;10.73;;;2.90;87.30;;;;;;5083556;28;20320;-90
2021/01/03 07:19:29;;;;;;;11.43;10.20;;;2.90;86.50;;;;;;5106274;28;20672;-90
2021/01/03 07:21:58;;;;;;;13.07;10.97;;;2.80;87.00;;;;;;5126812;28;20224;-90
2021/01/03 07:24:35;;;;;;;11.23;10.13;;;2.70;87.70;;;;;;5127304;28;20178;-89
2021/01/03 07:27:24;;;;;;;12.30;10.97;;;2.70;88.00;;;;;;5125918;28;20185;-90
2021/01/03 07:29:56;;;;;;;11.23;9.97;;;2.70;87.80;;;;;;5125789;28;20217;-90
2021/01/03 07:32:28;;;;;;;12.03;10.00;;;2.80;88.60;;;;;;5127148;28;20181;-92
2021/01/03 07:34:54;;;;;;;13.27;11.40;;;2.70;87.60;;;;;;5108588;28;20208;-91
2021/01/03 07:37:26;;;;;;;13.60;10.50;;;2.70;87.50;;;;;;5108359;28;20186;-91
2021/01/03 07:40:00;;;;;;;11.67;10.47;;;2.60;88.30;;;;;;5108862;28;20202;-92
2021/01/03 07:42:34;;;;;;;11.70;10.50;;;2.70;88.30;;;;;;5108857;28;20179;-92
2021/01/03 07:45:09;;;;;;;11.10;9.93;;;2.80;87.70;;;;;;5121204;28;20221;-91
2021/01/03 07:47:52;;;;;;;11.73;10.33;;;2.80;87.80;;;;;;5105202;28;20586;-92
2021/01/03 07:50:30;;;;;;;14.00;11.97;;;2.70;87.70;;;;;;5087725;28;20198;-91
2021/01/03 07:52:59;;;;;;;12.90;10.63;;;2.60;88.10;;;;;;5086702;28;20723;-91
2021/01/03 07:55:28;;;;;;;14.13;10.40;;;2.50;89.30;;;;;;5086396;28;20185;-91
2021/01/03 07:58:14;;;;;;;12.50;11.20;;;2.60;89.30;;;;;;5086316;28;20210;-91
2021/01/03 08:00:41;;;;;;;11.30;10.10;;;2.70;88.70;;;;;;5104491;28;20167;-91
2021/01/03 08:03:20;;;;;;;11.87;10.57;;;2.60;89.10;;;;;;5104416;28;20206;-92
2021/01/03 08:05:46;;;;;;;11.13;10.03;;;2.80;88.40;;;;;;5086588;28;20222;-91
2021/01/03 08:08:21;;;;;;;11.83;10.63;;;2.80;88.20;;;;;;5069049;28;20255;-90
2021/01/03 08:10:49;;;;;;;13.07;11.57;;;2.80;88.50;;;;;;5069025;28;20186;-92
2021/01/03 08:13:26;;;;;;;12.50;11.23;;;2.60;87.90;;;;;;5103708;28;20175;-90
2021/01/03 08:15:57;;;;;;;12.87;11.40;;;2.30;90.10;;;;;;5121759;28;20186;-90
2021/01/03 08:18:25;;;;;;;13.27;11.93;;;2.30;90.00;;;;;;5124872;28;20242;-91
2021/01/03 08:20:51;;;;;;;12.90;11.50;;;2.30;90.80;;;;;;5107035;28;20201;-90
2021/01/03 08:23:25;;;;;;;14.47;11.23;;;2.40;90.20;;;;;;5105102;28;20193;-90
2021/01/03 08:26:23;;;;;;;13.33;11.93;;;2.40;90.00;;;;;;5105508;28;20281;-90
2021/01/03 08:29:00;;;;;;;12.97;11.03;;;2.30;90.40;;;;;;5077581;28;20218;-90
2021/01/03 08:31:27;;;;;;;14.10;11.40;;;2.40;90.70;;;;;;5112537;28;20170;-90
2021/01/03 08:33:55;;;;;;;11.97;10.70;;;2.50;89.80;;;;;;5090808;28;20210;-90
2021/01/03 08:36:31;;;;;;;12.73;10.90;;;2.60;89.40;;;;;;5110535;28;20194;-90
2021/01/03 08:39:04;;;;;;;13.30;11.70;;;2.70;88.90;;;;;;5098429;28;20211;-89
2021/01/03 08:41:33;;;;;;;14.67;12.23;;;2.60;88.60;;;;;;5118940;28;20213;-90
2021/01/03 08:43:59;;;;;;;12.53;11.00;;;2.60;89.20;;;;;;5129496;28;20189;-90
2021/01/03 08:46:28;;;;;;;11.90;10.67;;;2.70;88.90;;;;;;5128970;28;20198;-89
2021/01/03 08:49:01;;;;;;;14.10;11.07;;;2.80;88.10;;;;;;5127529;28;20190;-91
2021/01/03 08:51:27;;;;;;;15.57;11.60;;;2.80;88.10;;;;;;5104526;28;20220;-91
2021/01/03 08:54:00;;;;;;;12.87;10.57;;;2.80;87.90;;;;;;5124283;28;20183;-90
2021/01/03 08:56:31;;;;;;;12.73;11.43;;;2.90;88.00;;;;;;5118055;28;20171;-92
2021/01/03 08:58:57;;;;;;;12.57;10.90;;;2.90;87.90;;;;;;5112248;28;20208;-91
2021/01/03 09:01:29;;;;;;;14.13;12.13;;;2.90;88.10;;;;;;5112307;28;20182;-92
2021/01/03 09:04:01;;;;;;;12.30;11.03;;;2.90;87.50;;;;;;5110843;28;20175;-91
2021/01/03 09:06:28;;;;;;;14.13;12.00;;;2.90;88.00;;;;;;5127686;28;20189;-91
2021/01/03 09:08:54;;;;;;;14.93;12.57;;;2.60;88.30;;;;;;5110228;28;20198;-91
2021/01/03 09:14:25;;;;;;;15.37;13.60;;;2.60;89.60;;;;;;5581656;22;20237;-90
2021/01/03 09:17:09;;;;;;;14.13;12.57;;;2.50;89.00;;;;;;4988989;28;20198;-90
2021/01/03 09:19:58;;;;;;;14.23;11.67;;;2.30;90.20;;;;;;5010556;28;20206;-90
2021/01/03 09:22:31;;;;;;;14.17;12.27;;;2.40;90.40;;;;;;5011227;28;20181;-90
2021/01/03 09:25:05;;;;;;;12.97;11.47;;;2.40;90.20;;;;;;5006923;28;20216;-90
2021/01/03 09:27:33;;;;;;;12.83;11.47;;;2.50;90.20;;;;;;5008422;28;20229;-92
2021/01/03 09:30:36;;;;;;;12.67;11.07;;;2.60;89.60;;;;;;5008484;28;20544;-90
2021/01/03 09:33:07;;;;;;;14.63;11.47;;;2.70;89.30;;;;;;4928279;29;20681;-91
2021/01/03 09:35:48;;;;;;;14.10;12.20;;;2.70;89.00;;;;;;4977217;28;20318;-91
2021/01/03 09:38:28;;;;;;;14.40;12.10;;;2.80;88.80;;;;;;5005097;28;20182;-90
2021/01/03 09:41:16;;;;;;;15.50;13.10;;;2.80;88.70;;;;;;5011610;28;20258;-91
2021/01/03 09:44:04;;;;;;;16.83;13.93;;;2.90;88.20;;;;;;4987231;28;20210;-91
2021/01/03 09:46:32;;;;;;;14.53;12.43;;;2.80;88.10;;;;;;4997942;28;20226;-91
2021/01/03 09:49:22;;;;;;;15.17;12.60;;;2.80;88.60;;;;;;4988367;28;20280;-91
2021/01/03 09:52:08;;;;;;;15.23;13.63;;;2.70;89.20;;;;;;4988918;28;20183;-91
2021/01/03 09:54:48;;;;;;;13.97;11.80;;;2.70;88.40;;;;;;5006202;28;20205;-91
2021/01/03 09:57:34;;;;;;;15.13;13.53;;;2.70;88.60;;;;;;5005209;28;20193;-90
2021/01/03 10:00:00;;;;;;;17.93;13.33;;;2.60;88.30;;;;;;5005433;28;20185;-90
2021/01/03 10:02:27;;;;;;;14.57;13.03;;;2.80;88.70;;;;;;4988742;28;20190;-90
2021/01/03 10:04:53;;;;;;;13.83;12.43;;;2.70;88.40;;;;;;4988513;28;20206;-89
2021/01/03 10:07:25;;;;;;;14.47;12.77;;;2.70;88.20;;;;;;5006327;28;20192;-91
2021/01/03 10:09:59;;;;;;;15.13;13.30;;;2.80;88.60;;;;;;5003394;28;20258;-90
2021/01/03 10:12:43;;;;;;;14.53;13.03;;;2.70;88.10;;;;;;5005398;28;20178;-90
2021/01/03 10:15:14;;;;;;;16.07;13.67;;;2.70;88.50;;;;;;4987322;28;20208;-90
2021/01/03 10:17:53;;;;;;;15.27;13.67;;;2.50;89.60;;;;;;5005646;28;20175;-91
2021/01/03 10:20:37;;;;;;;16.50;13.47;;;2.50;90.70;;;;;;5003648;28;20240;-91
2021/01/03 10:23:04;;;;;;;15.57;13.63;;;2.60;90.30;;;;;;5004440;28;20669;-90
2021/01/03 10:25:30;;;;;;;15.37;13.43;;;2.70;89.70;;;;;;5003431;28;20234;-90
2021/01/03 10:28:13;;;;;;;15.70;13.50;;;2.80;88.90;;;;;;5004774;28;20210;-90
2021/01/03 10:30:42;;;;;;;15.63;13.47;;;2.80;88.70;;;;;;4987028;28;20241;-91
2021/01/03 10:33:10;;;;;;;15.00;13.37;;;2.70;89.30;;;;;;5005015;28;20209;-91
2021/01/03 10:35:35;;;;;;;14.53;12.60;;;2.70;89.50;;;;;;5003831;28;20277;-90
2021/01/03 10:38:06;;;;;;;15.83;13.83;;;2.80;88.90;;;;;;5003777;28;20229;-91
2021/01/03 10:40:32;;;;;;;15.33;13.33;;;2.80;88.60;;;;;;5003346;28;20195;-90
2021/01/03 10:42:58;;;;;;;16.80;13.90;;;2.80;88.70;;;;;;5004343;28;20305;-90
2021/01/03 10:45:25;;;;;;;17.00;14.17;;;2.90;89.00;;;;;;5004418;28;20222;-91
2021/01/03 10:47:53;;;;;;;15.90;13.83;;;2.80;89.00;;;;;;5002825;28;20351;-91
2021/01/03 10:50:22;;;;;;;15.67;13.73;;;2.80;89.20;;;;;;4985618;28;20691;-91
2021/01/03 10:52:48;;;;;;;15.60;14.00;;;2.70;89.50;;;;;;5005255;28;20190;-91
2021/01/03 10:55:16;;;;;;;21.37;19.47;;;2.80;89.50;;;;;;4989201;28;20191;-91
2021/01/03 10:57:41;;;;;;;17.57;15.40;;;2.90;88.80;;;;;;4986866;28;20226;-91
2021/01/03 11:00:10;;;;;;;17.70;15.27;;;3.00;89.10;;;;;;5004917;28;20252;-91
2021/01/03 11:02:36;;;;;;;21.53;19.47;;;3.00;88.50;;;;;;4993589;28;20194;-91
2021/01/03 11:05:03;;;;;;;17.50;15.60;;;3.10;88.50;;;;;;4992075;28;20205;-92
2021/01/03 11:14:33;;;;;;;18.93;15.50;;;3.20;87.20;;;;;;4950105;28;20217;-90
2021/01/03 11:20:41;;;;;;;;;;;;;;;;;;;;;
2021/01/03 11:26:48;;;;;;;15.17;13.60;;;2.90;89.80;;;;;;4935246;29;20259;-90
2021/01/03 11:35:47;;;;;;;17.17;13.90;;;2.90;90.20;;;;;;4932600;29;20184;-90
2021/01/03 11:38:20;;;;;;;18.57;16.67;;;3.20;88.90;;;;;;4967157;28;20302;-89
2021/01/03 11:40:56;;;;;;;18.50;16.67;;;3.20;87.70;;;;;;4985424;28;20186;-89
2021/01/03 11:44:20;;;;;;;;;;;;;;;;;;;;;
2021/01/03 11:46:35;;;;;;;17.53;14.87;;;3.20;89.30;;;;;;4997248;28;20216;-89
2021/01/03 11:53:09;;;;;;;;;;;;;;;;;;;;;
2021/01/03 11:55:46;;;;;;;15.93;14.07;;;3.40;87.60;;;;;;4975429;28;20290;-90
2021/01/03 12:01:50;;;;;;;16.97;14.67;;;3.60;87.00;;;;;;4978797;28;20577;-89
2021/01/03 12:04:39;;;;;;;16.80;15.10;;;3.50;87.20;;;;;;4994964;28;20214;-90
2021/01/03 12:11:22;;;;;;;;;;;;;;;;;;;;;
2021/01/03 12:14:24;;;;;;;14.67;13.17;;;3.50;86.00;;;;;;5002828;28;20290;-91
2021/01/03 12:16:58;;;;;;;16.93;15.03;;;3.50;87.40;;;;;;4991086;28;20222;-91
2021/01/03 12:19:49;;;;;;;15.80;14.20;;;3.60;86.30;;;;;;4975523;28;20254;-90
2021/01/03 12:22:31;;;;;;;;;;;;;;;;;;;;;
2021/01/03 12:27:55;;;;;;;15.50;13.93;;;3.60;86.80;;;;;;5000152;28;20239;-92
2021/01/03 12:30:21;;;;;;;16.70;14.03;;;3.30;86.50;;;;;;4975482;28;20197;-91
2021/01/03 12:32:47;;;;;;;14.80;13.27;;;3.20;87.90;;;;;;4981841;28;20256;-91
2021/01/03 12:35:13;;;;;;;16.73;14.93;;;3.00;89.10;;;;;;4977535;28;20281;-91
2021/01/03 12:37:39;;;;;;;16.70;14.97;;;3.10;89.30;;;;;;4974085;28;20214;-94
2021/01/03 12:40:07;;;;;;;14.33;12.83;;;3.10;88.50;;;;;;4984032;28;20196;-92
2021/01/03 12:42:35;;;;;;;35.93;29.83;;;3.30;87.70;;;;;;5008270;28;20194;-92
2021/01/03 12:45:00;;;;;;;17.70;14.67;;;3.40;86.70;;;;;;4975423;28;20218;-92
2021/01/03 12:47:26;;;;;;;16.30;14.60;;;3.10;87.80;;;;;;4975670;28;20213;-92
2021/01/03 12:49:52;;;;;;;14.90;13.30;;;3.10;88.50;;;;;;4976088;28;20246;-93
2021/01/03 12:52:18;;;;;;;14.00;12.60;;;3.10;88.90;;;;;;4976264;28;20194;-93
2021/01/03 12:54:43;;;;;;;15.40;13.90;;;3.30;88.10;;;;;;4993089;28;20282;-92
2021/01/03 12:57:09;;;;;;;15.00;13.50;;;3.20;88.90;;;;;;4992448;28;20182;-93
2021/01/03 12:59:35;;;;;;;16.50;14.80;;;3.30;89.10;;;;;;5006640;28;20189;-93
2021/01/03 13:02:01;;;;;;;18.33;16.53;;;3.50;88.30;;;;;;4979187;28;20186;-93
2021/01/03 13:04:26;;;;;;;20.90;18.90;;;3.50;87.40;;;;;;4973359;28;20222;-93
2021/01/03 13:06:52;;;;;;;15.47;13.83;;;3.60;86.70;;;;;;4988059;28;20291;-93
2021/01/03 13:09:20;;;;;;;14.87;13.27;;;3.50;85.10;;;;;;4988636;28;20262;-93
2021/01/03 13:11:49;;;;;;;29.87;22.40;;;3.40;87.20;;;;;;4990424;28;20178;-90
2021/01/03 13:14:16;;;;;;;17.23;15.53;;;3.50;87.40;;;;;;4989187;28;20210;-91
2021/01/03 13:16:41;;;;;;;27.33;24.27;;;3.50;87.50;;;;;;5008019;28;20237;-90
2021/01/03 13:19:09;;;;;;;23.07;20.40;;;3.60;87.10;;;;;;5009034;28;20592;-90
2021/01/03 13:21:36;;;;;;;27.97;23.13;;;3.50;87.60;;;;;;4992265;28;20213;-91
2021/01/03 13:24:03;;;;;;;16.97;15.20;;;3.60;86.70;;;;;;5009163;28;20206;-90
2021/01/03 13:26:28;;;;;;;23.03;20.10;;;3.60;86.90;;;;;;4985964;28;20229;-91
2021/01/03 13:28:54;;;;;;;17.67;15.87;;;3.60;86.50;;;;;;4988953;28;20561;-90
2021/01/03 13:31:22;;;;;;;17.70;15.80;;;3.40;86.80;;;;;;5007753;28;20262;-91
2021/01/03 13:33:48;;;;;;;21.57;19.47;;;3.40;87.40;;;;;;4989641;28;20222;-91
2021/01/03 13:36:16;;;;;;;25.50;23.10;;;3.50;87.10;;;;;;4987506;28;20198;-90
2021/01/03 13:38:43;;;;;;;15.20;13.47;;;3.60;85.90;;;;;;4987560;28;20190;-91
2021/01/03 13:41:10;;;;;;;15.13;13.00;;;3.70;85.80;;;;;;5008946;28;20302;-91
2021/01/03 13:43:37;;;;;;;16.70;15.00;;;3.60;86.10;;;;;;5002944;28;20221;-90
2021/01/03 13:46:04;;;;;;;14.67;13.17;;;3.50;86.60;;;;;;4993604;28;20218;-91
2021/01/03 13:48:33;;;;;;;15.90;13.57;;;3.40;87.30;;;;;;5002275;28;20210;-91
2021/01/03 13:50:59;;;;;;;16.00;14.33;;;3.50;87.30;;;;;;5000502;28;20353;-91
2021/01/03 13:53:25;;;;;;;17.03;15.33;;;3.50;87.80;;;;;;5008008;28;20236;-91